Lake City, Georgia
Current Conditions -  °F | °C
As of 11:52 PM on Tuesday 25 Nov 2014 (Local Time) from KATL Reporting Station
Overcast Overcast  
Wind Chill: 51°   Ceiling: 8500
Heat Index: 51°   Visibility: 10mi
Dew Point: 34°   Wind: 9mph
Humidity: 52%   Direction: 290°WNW
Pressure: 30.03"   Gusts: NA
Location:  33.5846°N, 84.3286°W
Report Text: KATL 260452Z 29008KT 10SM BKN085 OVC110 11/01 A3003 RMK AO2 SLP168 VIRGA OHD-ALQDS T01060011 401670089
Loading
Personal Weather Stations






























Interactive Weather Map New forecast layout! Learn more

10-Day Weather Forecast

Advertisements
Track Severe Weather on mobile